createdAt,value
2023-04-27T00:00:28.669Z,100968.72
2023-04-27T00:03:16.555Z,100971.05
2023-04-27T00:05:45.691Z,100972.24
2023-04-27T00:08:14.195Z,100959.10
2023-04-27T00:10:42.657Z,100975.64
2023-04-27T00:13:11.153Z,100976.28
2023-04-27T00:15:39.513Z,100978.20
2023-04-27T00:18:09.248Z,100975.54
2023-04-27T00:20:37.911Z,100951.63
2023-04-27T00:23:06.596Z,100972.58
2023-04-27T00:25:36.424Z,100976.23
2023-04-27T00:28:05.202Z,100978.78
2023-04-27T00:30:33.773Z,100979.32
2023-04-27T00:33:02.413Z,100968.00
2023-04-27T00:35:32.681Z,100978.85
2023-04-27T00:38:01.365Z,100987.16
2023-04-27T00:40:30.731Z,100990.66
2023-04-27T00:43:00.271Z,100994.14
2023-04-27T00:45:29.881Z,100993.88
2023-04-27T00:47:59.214Z,100974.58
2023-04-27T00:55:24.770Z,100991.48
2023-04-27T00:57:53.451Z,100993.56
2023-04-27T01:00:22.649Z,100964.23
2023-04-27T01:02:51.555Z,100982.63
2023-04-27T01:05:20.427Z,100985.64
2023-04-27T01:07:49.326Z,100983.94
2023-04-27T01:10:17.600Z,100983.09
2023-04-27T01:12:46.477Z,100963.84
2023-04-27T01:15:14.850Z,100971.11
2023-04-27T01:17:44.106Z,100981.00
2023-04-27T01:20:12.840Z,100989.48
2023-04-27T01:22:42.046Z,100997.17
2023-04-27T01:25:11.955Z,100978.71
2023-04-27T01:27:40.644Z,100996.60
2023-04-27T01:30:09.432Z,100998.89
2023-04-27T01:32:39.477Z,100997.13
2023-04-27T01:35:08.749Z,100999.55
2023-04-27T01:37:37.213Z,100991.63
2023-04-27T01:40:07.233Z,101010.96
2023-04-27T01:42:35.632Z,101005.73
2023-04-27T01:45:05.526Z,101004.75
2023-04-27T01:47:33.963Z,100990.90
2023-04-27T01:50:02.996Z,100995.17
2023-04-27T01:52:31.683Z,101005.34
2023-04-27T01:55:00.172Z,101009.16
2023-04-27T01:57:29.357Z,101006.40
2023-04-27T01:59:58.044Z,100996.72
2023-04-27T02:02:26.859Z,100981.93
2023-04-27T02:04:56.743Z,100994.23
2023-04-27T02:21:18.983Z,100980.36
2023-04-27T02:23:46.038Z,100974.58
2023-04-27T02:26:17.955Z,100974.20
2023-04-27T02:28:46.357Z,100988.04
2023-04-27T02:31:15.323Z,100989.88
2023-04-27T02:33:42.658Z,100989.41
2023-04-27T02:36:09.747Z,100986.03
2023-04-27T02:38:36.807Z,100996.37
2023-04-27T02:41:04.462Z,101007.80
2023-04-27T02:43:34.583Z,101008.47
2023-04-27T02:46:04.288Z,101001.77
2023-04-27T02:48:31.443Z,100994.52
2023-04-27T02:50:58.777Z,101009.61
2023-04-27T02:53:26.036Z,101021.04
2023-04-27T02:55:53.037Z,101020.54
2023-04-27T02:58:20.085Z,101022.50
2023-04-27T03:00:48.788Z,101010.52
2023-04-27T03:03:16.283Z,101021.31
2023-04-27T03:27:00.797Z,101055.24
2023-04-27T03:29:29.282Z,101075.89
2023-04-27T03:31:58.034Z,101082.86
2023-04-27T03:34:26.544Z,101089.31
2023-04-27T03:36:55.242Z,101087.42
2023-04-27T03:39:23.506Z,101073.80
2023-04-27T03:41:51.882Z,101089.83
2023-04-27T03:44:21.174Z,101093.30
2023-04-27T03:46:49.561Z,101096.70
2023-04-27T03:49:18.148Z,101088.49
2023-04-27T03:51:47.641Z,101074.80
2023-04-27T03:54:16.535Z,101083.11
2023-04-27T03:56:44.824Z,101098.39
2023-04-27T03:59:13.733Z,101103.41
2023-04-27T04:01:49.178Z,101107.98
2023-04-27T04:04:17.920Z,101108.31
2023-04-27T04:20:15.573Z,101119.83
2023-04-27T04:22:44.871Z,101126.27
2023-04-27T04:25:13.460Z,101127.61
2023-04-27T04:27:43.267Z,101124.15
2023-04-27T04:30:13.007Z,101127.05
2023-04-27T04:32:42.098Z,101126.72
2023-04-27T04:35:11.497Z,101132.02
2023-04-27T04:37:40.588Z,101131.91
2023-04-27T04:40:11.713Z,101131.16
2023-04-27T04:42:43.031Z,101131.21
2023-04-27T04:45:12.069Z,101125.15
2023-04-27T04:47:41.087Z,101126.31
2023-04-27T04:50:10.436Z,101127.55
2023-04-27T04:52:40.045Z,101124.39
2023-04-27T04:55:09.783Z,101133.17
2023-04-27T04:57:38.132Z,101134.70
2023-04-27T05:00:12.709Z,101139.78
2023-04-27T05:02:41.753Z,101147.66
2023-04-27T05:05:11.258Z,101153.41
2023-04-27T05:07:39.535Z,101155.94
2023-04-27T05:10:08.731Z,101159.08
2023-04-27T05:12:37.206Z,101163.42
2023-04-27T05:15:06.901Z,101159.80
2023-04-27T05:17:35.314Z,101157.45
2023-04-27T05:20:05.315Z,101164.94
2023-04-27T05:22:33.770Z,101169.00
2023-04-27T05:25:02.372Z,101169.16
2023-04-27T05:27:30.966Z,101163.48
2023-04-27T05:29:59.224Z,101168.26
2023-04-27T05:32:27.817Z,101171.35
2023-04-27T05:34:56.495Z,101172.15
2023-04-27T05:37:25.178Z,101171.49
2023-04-27T05:39:53.669Z,101176.98
2023-04-27T05:42:22.036Z,101178.42
2023-04-27T05:44:50.530Z,101173.80
2023-04-27T05:47:19.000Z,101172.77
2023-04-27T05:49:51.882Z,101177.40
2023-04-27T05:52:21.188Z,101179.19
2023-04-27T05:54:50.387Z,101174.42
2023-04-27T05:57:20.496Z,101173.80
2023-04-27T05:59:48.884Z,101172.45
2023-04-27T06:02:20.030Z,101166.48
2023-04-27T06:04:49.457Z,101160.01
2023-04-27T06:07:17.802Z,101162.80
2023-04-27T06:09:46.383Z,101157.58
2023-04-27T06:12:15.064Z,101159.05
2023-04-27T06:14:43.821Z,101160.96
2023-04-27T06:17:12.433Z,101159.28
2023-04-27T06:19:40.818Z,101154.79
2023-04-27T06:22:11.879Z,101153.13
2023-04-27T06:24:40.332Z,101145.23
2023-04-27T06:27:08.817Z,101146.38
2023-04-27T06:29:37.617Z,101141.20
2023-04-27T06:32:07.258Z,101145.60
2023-04-27T06:34:36.294Z,101141.01
2023-04-27T06:37:04.985Z,101135.66
2023-04-27T06:39:33.357Z,101128.81
2023-04-27T06:42:04.193Z,101129.70
2023-04-27T06:44:33.291Z,101130.05
2023-04-27T06:47:01.772Z,101133.56
2023-04-27T06:49:30.555Z,101126.85
2023-04-27T06:51:58.832Z,101130.21
2023-04-27T06:54:27.210Z,101123.11
2023-04-27T06:56:55.688Z,101124.87
2023-04-27T06:59:24.065Z,101123.39
2023-04-27T07:01:52.454Z,101124.19
2023-04-27T07:04:21.555Z,101126.30
2023-04-27T07:06:50.223Z,101118.98
2023-04-27T07:09:26.901Z,101117.18
2023-04-27T07:11:57.628Z,101120.29
2023-04-27T07:14:26.336Z,101112.85
2023-04-27T07:16:56.023Z,101110.23
2023-04-27T07:19:24.296Z,101113.33
2023-04-27T07:21:52.984Z,101113.39
2023-04-27T07:24:21.470Z,101116.54
2023-04-27T07:26:50.156Z,101119.70
2023-04-27T07:29:26.377Z,101103.05
2023-04-27T07:31:56.254Z,101108.58
2023-04-27T07:34:24.802Z,101108.93
2023-04-27T07:36:55.857Z,101103.23
2023-04-27T07:39:24.426Z,101100.98
2023-04-27T07:41:53.932Z,101107.06
2023-04-27T07:44:22.195Z,101103.41
2023-04-27T07:46:54.267Z,101105.26
2023-04-27T07:49:22.853Z,101106.23
2023-04-27T07:51:51.329Z,101104.36
2023-04-27T07:54:20.226Z,101105.58
2023-04-27T07:56:50.029Z,101112.80
2023-04-27T07:59:21.789Z,101116.59
2023-04-27T08:01:50.608Z,101125.09
2023-04-27T08:04:21.749Z,101119.09
2023-04-27T08:07:17.480Z,101123.67
2023-04-27T08:09:46.783Z,101126.25
2023-04-27T08:12:16.199Z,101129.53
2023-04-27T08:14:48.817Z,101132.72
2023-04-27T08:17:18.837Z,101134.55
2023-04-27T08:19:47.417Z,101133.08
2023-04-27T08:22:16.105Z,101137.96
2023-04-27T08:24:44.784Z,101133.63
2023-04-27T08:27:16.028Z,101140.33
2023-04-27T08:29:48.806Z,101147.17
2023-04-27T08:32:19.228Z,101137.30
2023-04-27T08:34:48.944Z,101146.74
2023-04-27T08:37:18.964Z,101147.85
2023-04-27T08:39:48.258Z,101148.91
2023-04-27T08:42:16.842Z,101146.67
2023-04-27T08:44:45.934Z,101152.71
2023-04-27T08:47:14.313Z,101149.11
2023-04-27T08:49:43.307Z,101152.03
2023-04-27T08:52:16.578Z,101154.02
2023-04-27T08:54:45.285Z,101153.78
2023-04-27T08:57:14.890Z,101148.81
2023-04-27T08:59:46.336Z,101148.07
2023-04-27T09:02:21.698Z,101146.30
2023-04-27T09:04:52.453Z,101142.95
2023-04-27T09:07:21.103Z,101144.05
2023-04-27T09:09:50.092Z,101139.65
2023-04-27T09:12:21.042Z,101140.74
2023-04-27T09:15:06.767Z,101146.02
2023-04-27T09:17:35.010Z,101139.59
2023-04-27T09:20:14.114Z,101136.63
2023-04-27T09:22:47.734Z,101144.91
2023-04-27T09:25:32.004Z,101148.08
2023-04-27T09:28:04.748Z,101148.09
2023-04-27T09:30:33.337Z,101147.34
2023-04-27T09:33:03.947Z,101146.40
2023-04-27T09:35:33.781Z,101143.34
2023-04-27T09:38:02.369Z,101145.58
2023-04-27T09:40:32.241Z,101145.37
2023-04-27T09:43:03.816Z,101147.34
2023-04-27T09:45:34.509Z,101150.40
2023-04-27T09:48:03.359Z,101146.64
2023-04-27T09:50:44.597Z,101144.35
2023-04-27T09:53:15.566Z,101142.81
2023-04-27T09:55:48.964Z,101147.69
2023-04-27T09:58:31.147Z,101152.59
2023-04-27T10:01:14.508Z,101153.80
2023-04-27T10:04:22.010Z,101153.86
2023-04-27T10:06:59.777Z,101149.14
2023-04-27T10:09:35.414Z,101150.60
2023-04-27T10:12:20.281Z,101150.77
2023-04-27T10:14:49.284Z,101151.45
2023-04-27T10:17:18.142Z,101155.80
2023-04-27T10:19:58.220Z,101149.09
2023-04-27T10:22:46.252Z,101147.54
2023-04-27T10:25:26.010Z,101150.58
2023-04-27T10:28:02.467Z,101148.23
2023-04-27T10:30:37.865Z,101147.43
2023-04-27T10:33:09.817Z,101151.78
2023-04-27T10:35:40.405Z,101152.39
2023-04-27T10:38:12.261Z,101149.92
2023-04-27T10:40:41.453Z,101150.75
2023-04-27T10:43:15.061Z,101145.48
2023-04-27T10:45:45.689Z,101145.92
2023-04-27T10:48:16.940Z,101140.57
2023-04-27T10:50:48.354Z,101138.45
2023-04-27T10:53:16.966Z,101136.13
2023-04-27T10:55:45.334Z,101139.30
2023-04-27T10:58:13.823Z,101135.19
2023-04-27T11:00:45.098Z,101139.31
2023-04-27T11:03:24.446Z,101141.24
2023-04-27T11:06:05.352Z,101145.14
2023-04-27T11:08:37.029Z,101137.50
2023-04-27T11:11:06.528Z,101139.01
2023-04-27T11:13:35.214Z,101137.41
2023-04-27T11:16:05.972Z,101139.63
2023-04-27T11:18:38.730Z,101142.78
2023-04-27T11:21:08.094Z,101134.30
2023-04-27T11:24:06.717Z,101136.04
2023-04-27T11:26:35.405Z,101134.52
2023-04-27T11:29:10.947Z,101137.29
2023-04-27T11:31:47.752Z,101137.38
2023-04-27T11:34:19.519Z,101128.89
2023-04-27T11:39:37.942Z,101125.48
2023-04-27T11:42:19.734Z,101129.92
2023-04-27T11:45:10.855Z,101133.58
2023-04-27T11:47:41.193Z,101136.11
2023-04-27T11:50:11.192Z,101135.81
2023-04-27T11:52:41.077Z,101130.39
2023-04-27T11:55:16.257Z,101126.42
2023-04-27T11:57:44.932Z,101133.89
2023-04-27T12:00:15.953Z,101134.23
2023-04-27T12:02:44.644Z,101137.16
2023-04-27T12:05:14.508Z,101136.23
2023-04-27T12:07:44.269Z,101137.27
2023-04-27T12:10:13.115Z,101135.23
2023-04-27T12:12:42.208Z,101139.12
2023-04-27T12:15:14.716Z,101132.75
2023-04-27T12:17:44.558Z,101140.73
2023-04-27T12:20:15.366Z,101149.41
2023-04-27T12:22:44.339Z,101142.46
2023-04-27T12:25:13.044Z,101144.54
2023-04-27T12:27:42.031Z,101143.70
2023-04-27T12:30:11.129Z,101143.97
2023-04-27T12:32:40.476Z,101140.98
2023-04-27T12:35:10.960Z,101142.39
2023-04-27T12:37:39.539Z,101144.22
2023-04-27T12:40:09.354Z,101149.20
2023-04-27T12:42:38.112Z,101153.04
2023-04-27T12:45:08.310Z,101159.36
2023-04-27T12:50:10.187Z,101160.80
2023-04-27T12:52:38.924Z,101161.40
2023-04-27T12:55:17.930Z,101163.59
2023-04-27T12:57:51.319Z,101163.46
2023-04-27T13:00:21.108Z,101165.88
2023-04-27T13:02:49.716Z,101162.46
2023-04-27T13:05:22.988Z,101165.65
2023-04-27T13:07:51.275Z,101164.16
2023-04-27T13:10:22.300Z,101164.20
2023-04-27T13:12:50.809Z,101168.67
2023-04-27T13:15:19.383Z,101163.88
2023-04-27T13:17:49.131Z,101165.23
2023-04-27T13:20:17.982Z,101170.23
2023-04-27T13:22:46.252Z,101170.75
2023-04-27T13:25:18.539Z,101172.45
2023-04-27T13:27:46.895Z,101171.27
2023-04-27T13:30:20.399Z,101175.90
2023-04-27T13:32:49.422Z,101183.27
2023-04-27T13:35:18.896Z,101192.02
2023-04-27T13:37:48.494Z,101186.59
2023-04-27T13:40:18.513Z,101190.83
2023-04-27T13:42:47.400Z,101193.42
2023-04-27T13:45:15.985Z,101195.36
2023-04-27T13:47:44.809Z,101189.84
2023-04-27T13:50:19.264Z,101196.52
2023-04-27T13:52:48.796Z,101202.80
2023-04-27T13:55:17.364Z,101212.59
2023-04-27T13:57:45.663Z,101214.25
2023-04-27T14:00:14.853Z,101216.80
2023-04-27T14:02:43.863Z,101218.42
2023-04-27T14:05:13.036Z,101219.00
2023-04-27T14:07:41.524Z,101224.69
2023-04-27T14:10:11.766Z,101225.90
2023-04-27T14:12:40.329Z,101225.31
2023-04-27T14:15:10.238Z,101225.14
2023-04-27T14:17:38.675Z,101225.39
2023-04-27T14:20:09.767Z,101228.47
2023-04-27T14:22:38.601Z,101231.13
2023-04-27T14:25:08.261Z,101228.52
2023-04-27T14:27:37.370Z,101227.03
2023-04-27T14:30:07.180Z,101230.70
2023-04-27T14:32:36.796Z,101230.02
2023-04-27T14:35:07.391Z,101233.33
2023-04-27T14:37:38.231Z,101234.38
2023-04-27T14:40:07.987Z,101237.76
2023-04-27T14:42:36.632Z,101239.30
2023-04-27T14:45:07.462Z,101239.36
2023-04-27T14:47:36.153Z,101240.33
2023-04-27T14:50:05.448Z,101240.60
2023-04-27T14:52:34.547Z,101235.50
2023-04-27T14:55:03.147Z,101241.08
2023-04-27T14:57:32.432Z,101243.90
2023-04-27T15:00:01.412Z,101243.98
2023-04-27T15:02:31.203Z,101244.55
2023-04-27T15:05:02.155Z,101247.92
2023-04-27T15:07:56.348Z,101241.38
2023-04-27T15:10:26.153Z,101241.41
2023-04-27T15:12:54.939Z,101245.12
2023-04-27T15:15:23.531Z,101248.62
2023-04-27T15:17:52.254Z,101250.73
2023-04-27T15:20:21.205Z,101250.45
2023-04-27T15:22:49.587Z,101252.08
2023-04-27T15:25:18.269Z,101251.81
2023-04-27T15:27:46.959Z,101256.89
2023-04-27T15:30:17.066Z,101256.37
2023-04-27T15:32:45.778Z,101260.89
2023-04-27T15:35:14.240Z,101262.70
2023-04-27T15:37:42.613Z,101263.92
2023-04-27T15:40:11.803Z,101265.95
2023-04-27T15:42:40.486Z,101266.43
2023-04-27T15:45:11.153Z,101272.11
2023-04-27T15:47:39.658Z,101271.84
2023-04-27T15:50:08.625Z,101270.83
2023-04-27T15:52:37.073Z,101276.11
2023-04-27T15:55:06.681Z,101276.14
2023-04-27T15:57:36.281Z,101277.63
2023-04-27T16:00:12.242Z,101280.71
2023-04-27T16:02:40.817Z,101286.77
2023-04-27T16:05:10.019Z,101292.31
2023-04-27T16:07:40.068Z,101293.00
2023-04-27T16:10:10.003Z,101296.46
2023-04-27T16:12:38.852Z,101294.59
2023-04-27T16:15:10.955Z,101301.48
2023-04-27T16:17:40.034Z,101302.55
2023-04-27T16:20:09.811Z,101312.95
2023-04-27T16:22:38.498Z,101321.90
2023-04-27T16:25:11.158Z,101327.61
2023-04-27T16:27:39.649Z,101323.30
2023-04-27T16:30:09.107Z,101328.46
2023-04-27T16:32:38.186Z,101328.10
2023-04-27T16:35:08.375Z,101336.48
2023-04-27T16:37:36.751Z,101343.77
2023-04-27T16:40:08.198Z,101352.05
2023-04-27T16:42:36.789Z,101356.33
2023-04-27T16:45:09.152Z,101364.82
2023-04-27T16:47:39.483Z,101363.77
2023-04-27T16:50:09.286Z,101365.50
2023-04-27T16:52:37.559Z,101367.07
2023-04-27T16:55:07.672Z,101368.05
2023-04-27T16:57:36.160Z,101376.00
2023-04-27T17:00:06.663Z,101385.02
2023-04-27T17:02:35.501Z,101388.61
2023-04-27T17:05:04.829Z,101387.02
2023-04-27T17:07:33.556Z,101395.50
2023-04-27T17:10:02.340Z,101396.68
2023-04-27T17:12:30.818Z,101400.83
2023-04-27T17:14:59.451Z,101403.88
2023-04-27T17:17:27.799Z,101406.33
2023-04-27T17:19:56.463Z,101412.10
2023-04-27T17:22:25.048Z,101414.14
2023-04-27T17:24:53.731Z,101417.98
2023-04-27T17:27:22.003Z,101421.55
2023-04-27T17:29:52.020Z,101422.95
2023-04-27T17:32:20.295Z,101427.49
2023-04-27T17:34:49.089Z,101431.08
2023-04-27T17:37:17.361Z,101432.55
2023-04-27T17:39:46.452Z,101435.27
2023-04-27T17:42:15.448Z,101443.35
2023-04-27T17:44:44.040Z,101445.58
2023-04-27T17:47:13.946Z,101451.46
2023-04-27T17:49:42.333Z,101453.54
2023-04-27T17:52:10.702Z,101455.43
2023-04-27T17:54:41.435Z,101461.34
2023-04-27T17:57:09.915Z,101458.67
2023-04-27T17:59:38.595Z,101461.55
2023-04-27T18:02:07.939Z,101466.94
2023-04-27T18:04:37.126Z,101467.15
2023-04-27T18:07:06.611Z,101469.64
2023-04-27T18:09:35.080Z,101475.88
2023-04-27T18:12:04.891Z,101473.35
2023-04-27T18:14:33.164Z,101473.52
2023-04-27T18:17:01.747Z,101475.55
2023-04-27T18:19:30.331Z,101474.55
2023-04-27T18:21:58.818Z,101480.73
2023-04-27T18:24:27.189Z,101485.55
2023-04-27T18:26:55.601Z,101490.43
2023-04-27T18:29:24.347Z,101478.91
2023-04-27T18:31:53.627Z,101478.21
2023-04-27T18:34:22.342Z,101502.98
2023-04-27T18:36:52.188Z,101502.72
2023-04-27T18:39:20.943Z,101507.88
2023-04-27T18:41:49.525Z,101515.98
2023-04-27T18:44:17.885Z,101519.96
2023-04-27T18:46:49.339Z,101517.70
2023-04-27T18:49:17.902Z,101524.72
2023-04-27T18:51:46.510Z,101527.11
2023-04-27T18:54:15.083Z,101527.64
2023-04-27T18:56:43.358Z,101527.48
2023-04-27T18:59:11.964Z,101528.25
2023-04-27T19:01:40.903Z,101530.17
2023-04-27T19:04:09.443Z,101530.77
2023-04-27T19:06:37.998Z,101530.09
2023-04-27T19:09:06.579Z,101529.63
2023-04-27T19:11:36.397Z,101529.20
2023-04-27T19:14:04.672Z,101508.33
2023-04-27T19:16:33.191Z,101528.02
2023-04-27T19:19:01.541Z,101531.41
2023-04-27T19:21:30.224Z,101532.70
2023-04-27T19:23:58.903Z,101529.64
2023-04-27T19:26:29.633Z,101530.27
2023-04-27T19:28:58.311Z,101531.50
2023-04-27T19:31:28.207Z,101528.45
2023-04-27T19:36:32.342Z,101525.19
2023-04-27T19:39:01.342Z,101527.09
2023-04-27T19:41:29.620Z,101504.05
2023-04-27T19:43:58.200Z,101523.66
2023-04-27T19:46:26.947Z,101524.91
2023-04-27T19:48:56.185Z,101528.11
2023-04-27T19:51:24.972Z,101523.94
2023-04-27T19:53:53.347Z,101524.05
2023-04-27T19:56:21.828Z,101522.80
2023-04-27T19:58:50.621Z,101525.77
2023-04-27T20:01:20.363Z,101524.76
2023-04-27T20:03:49.187Z,101503.16
2023-04-27T20:06:20.458Z,101521.17
2023-04-27T20:08:49.345Z,101523.55
2023-04-27T20:11:17.724Z,101526.67
2023-04-27T20:13:46.421Z,101526.84
2023-04-27T20:16:14.878Z,101530.03
2023-04-27T20:18:45.417Z,101535.61
2023-04-27T20:21:14.315Z,101537.14
2023-04-27T20:23:43.193Z,101531.15
2023-04-27T20:26:11.981Z,101521.77
2023-04-27T20:28:40.152Z,101547.98
2023-04-27T20:31:08.740Z,101548.88
2023-04-27T20:33:37.119Z,101545.98
2023-04-27T20:36:14.087Z,101548.58
2023-04-27T20:38:46.579Z,101547.77
2023-04-27T20:41:15.149Z,101553.20
2023-04-27T20:43:45.788Z,101554.46
2023-04-27T20:46:14.175Z,101557.11
2023-04-27T20:48:42.641Z,101561.52
2023-04-27T20:51:11.530Z,101537.98
2023-04-27T20:53:40.730Z,101552.72
2023-04-27T20:56:09.516Z,101561.80
2023-04-27T20:58:37.989Z,101565.32
2023-04-27T21:01:06.642Z,101571.40
2023-04-27T21:03:36.144Z,101573.27
2023-04-27T21:06:05.279Z,101572.66
2023-04-27T21:08:34.282Z,101574.49
2023-04-27T21:11:03.070Z,101559.40
2023-04-27T21:13:31.842Z,101555.83
2023-04-27T21:16:00.324Z,101579.25
2023-04-27T21:18:30.396Z,101575.30
2023-04-27T21:20:59.607Z,101583.17
2023-04-27T21:23:28.166Z,101582.59
2023-04-27T21:25:56.612Z,101581.91
2023-04-27T21:28:25.078Z,101584.30
2023-04-27T21:30:53.509Z,101586.77
2023-04-27T21:33:22.669Z,101570.41
2023-04-27T21:35:51.030Z,101585.39
2023-04-27T21:38:19.407Z,101595.37
2023-04-27T21:40:48.473Z,101597.30
2023-04-27T21:43:17.085Z,101594.05
2023-04-27T21:45:45.358Z,101597.36
2023-04-27T21:48:13.866Z,101597.52
2023-04-27T21:50:42.733Z,101599.19
2023-04-27T21:53:11.827Z,101598.84
2023-04-27T22:07:37.614Z,101587.58
2023-04-27T22:10:06.787Z,101583.50
2023-04-27T22:12:35.273Z,101582.48
2023-04-27T22:15:04.359Z,101563.77
2023-04-27T22:17:32.634Z,101566.13
2023-04-27T22:20:01.624Z,101586.40
2023-04-27T22:27:06.090Z,101579.63
2023-04-27T22:29:34.675Z,101583.96
2023-04-27T22:32:28.149Z,101580.41
2023-04-27T22:34:57.652Z,101581.23
2023-04-27T22:37:27.184Z,101582.07
2023-04-27T22:39:57.566Z,101555.28
2023-04-27T22:42:26.159Z,101564.40
2023-04-27T22:44:54.726Z,101569.79
2023-04-27T22:47:23.382Z,101573.27
2023-04-27T22:49:55.152Z,101569.14
2023-04-27T22:52:25.090Z,101570.29
2023-04-27T22:54:53.573Z,101574.29
2023-04-27T22:57:22.146Z,101572.66
2023-04-27T22:59:51.753Z,101573.41
2023-04-27T23:02:20.577Z,101579.59
2023-04-27T23:04:49.231Z,101574.71
2023-04-27T23:41:01.355Z,101564.28
2023-04-27T23:43:29.622Z,101542.98
